Time;durP1;ratioP1;P1;durP2;ratioP2;P2;SDS_P1;SDS_P2;PMS_P1;PMS_P2;Temp;Humidity;BMP_temperature;BMP_pressure;BME280_temperature;BME280_humidity;BME280_pressure;Samples;Min_cycle;Max_cycle;Signal;HPM_P1;HPM_P2
2022/04/18 00:03:01;;;;;;;11.17;10.30;;;;;;;21.98;31.80;94643.81;6154587;28;103215;-59
2022/04/18 00:06:03;;;;;;;10.83;9.93;;;;;;;21.98;31.64;94639.28;6153050;28;103126;-58
2022/04/18 00:09:05;;;;;;;9.87;9.13;;;;;;;21.97;31.82;94651.03;6153898;28;102979;-59
2022/04/18 00:12:07;;;;;;;10.60;9.80;;;;;;;21.97;31.28;94643.03;6153251;28;103535;-59
2022/04/18 00:15:09;;;;;;;10.27;9.53;;;;;;;21.95;31.41;94639.91;6160478;28;104362;-58
2022/04/18 00:18:11;;;;;;;10.70;9.80;;;;;;;21.98;31.53;94638.50;6150817;28;104142;-59
2022/04/18 00:21:13;;;;;;;9.80;9.10;;;;;;;21.96;31.41;94638.03;6148769;28;104438;-58
2022/04/18 00:24:17;;;;;;;9.20;8.50;;;;;;;21.97;31.22;94637.72;6158110;28;103143;-58
2022/04/18 00:27:18;;;;;;;9.70;8.90;;;;;;;21.96;31.09;94632.69;6154486;28;103202;-59
2022/04/18 00:30:20;;;;;;;10.20;9.40;;;;;;;21.96;31.48;94627.38;6161268;28;103372;-59
2022/04/18 00:33:22;;;;;;;9.50;8.70;;;;;;;21.95;31.31;94626.59;6140326;28;104966;-58
2022/04/18 00:36:24;;;;;;;9.40;8.60;;;;;;;21.96;31.21;94630.81;6150562;28;103318;-58
2022/04/18 00:39:26;;;;;;;9.70;9.00;;;;;;;21.94;31.13;94621.56;6152998;28;103969;-59
2022/04/18 00:42:27;;;;;;;9.50;8.80;;;;;;;21.96;31.22;94638.03;6159566;28;103201;-59
2022/04/18 00:45:29;;;;;;;10.23;9.43;;;;;;;21.94;31.26;94622.34;6149725;28;103021;-58
2022/04/18 00:48:31;;;;;;;9.73;8.93;;;;;;;21.94;31.18;94618.91;6160329;28;103004;-57
2022/04/18 00:51:34;;;;;;;10.47;9.57;;;;;;;21.94;31.22;94626.91;6161633;28;103086;-59
2022/04/18 00:54:36;;;;;;;9.77;8.97;;;;;;;21.94;31.42;94624.25;6136918;28;104133;-54
2022/04/18 00:57:38;;;;;;;8.77;8.07;;;;;;;21.94;31.37;94622.34;6144079;28;102824;-59
2022/04/18 01:00:40;;;;;;;9.03;8.40;;;;;;;21.92;31.19;94626.44;6157240;28;104283;-58
2022/04/18 01:03:43;;;;;;;8.87;8.17;;;;;;;21.94;31.32;94624.25;6157901;28;103387;-58
2022/04/18 01:06:45;;;;;;;10.03;9.20;;;;;;;21.91;31.10;94615.00;6145554;28;104376;-57
2022/04/18 01:09:47;;;;;;;9.40;8.70;;;;;;;21.93;31.22;94620.00;6151571;28;104259;-58
2022/04/18 01:12:49;;;;;;;8.63;7.93;;;;;;;21.91;31.19;94606.22;6158907;28;103500;-58
2022/04/18 01:15:55;;;;;;;9.90;9.10;;;;;;;21.93;30.77;94610.13;6159241;28;103027;-59
2022/04/18 01:18:57;;;;;;;9.40;8.70;;;;;;;21.91;31.06;94608.88;6151152;28;103189;-58
2022/04/18 01:21:59;;;;;;;8.60;7.90;;;;;;;21.92;31.22;94603.25;6148514;28;103184;-58
2022/04/18 01:31:41;;;;;;;8.47;7.77;;;;;;;21.89;31.07;94593.22;6133212;28;103020;-58
2022/04/18 01:34:43;;;;;;;9.47;8.67;;;;;;;21.90;30.80;94584.13;6154777;28;103674;-59
2022/04/18 01:37:45;;;;;;;9.50;8.30;;;;;;;21.90;31.09;94584.13;6157765;28;104240;-58
2022/04/18 01:40:47;;;;;;;8.87;8.17;;;;;;;21.90;30.88;94594.00;6149755;28;104498;-59
2022/04/18 01:43:49;;;;;;;8.67;8.00;;;;;;;21.89;30.79;94585.22;6157048;28;103099;-52
2022/04/18 01:46:51;;;;;;;9.00;8.30;;;;;;;21.89;30.97;94579.13;6156115;28;103442;-53
2022/04/18 01:49:53;;;;;;;9.37;8.60;;;;;;;21.85;31.14;94570.97;6140784;28;103145;-52
2022/04/18 01:52:54;;;;;;;8.37;7.77;;;;;;;21.89;30.75;94579.13;6139155;28;104433;-54
2022/04/18 01:55:57;;;;;;;9.20;8.40;;;;;;;21.89;30.72;94573.78;6143150;28;104277;-55
2022/04/18 01:58:58;;;;;;;8.37;7.67;;;;;;;21.86;30.86;94561.91;6153017;28;104268;-54
2022/04/18 02:02:00;;;;;;;8.93;8.13;;;;;;;21.88;31.23;94570.34;6157036;28;103220;-54
2022/04/18 02:05:04;;;;;;;8.63;7.93;;;;;;;21.87;31.07;94560.00;6143743;28;103027;-55
2022/04/18 02:08:06;;;;;;;8.30;7.60;;;;;;;21.87;30.99;94552.81;6159621;28;103219;-54
2022/04/18 02:11:08;;;;;;;9.00;8.30;;;;;;;21.85;30.68;94547.00;6154165;28;103440;-54
2022/04/18 02:14:10;;;;;;;8.13;7.43;;;;;;;21.88;30.48;94549.03;6151841;28;104363;-55
2022/04/18 02:17:11;;;;;;;8.17;7.57;;;;;;;21.88;30.77;94548.25;6152133;28;103058;-54
2022/04/18 02:20:13;;;;;;;8.03;7.43;;;;;;;21.87;31.02;94546.69;6159019;28;104634;-54
2022/04/18 02:23:15;;;;;;;8.10;7.50;;;;;;;21.87;31.08;94547.47;6147057;28;103304;-54
2022/04/18 02:26:16;;;;;;;7.73;7.03;;;;;;;21.87;30.90;94542.16;6144119;28;103328;-55
2022/04/18 02:29:18;;;;;;;8.37;7.77;;;;;;;21.86;30.69;94529.94;6160302;28;104261;-55
2022/04/18 02:35:40;;;;;;;7.50;6.90;;;;;;;21.87;30.70;94549.34;6162785;28;103135;-54
2022/04/18 02:38:42;;;;;;;7.83;7.23;;;;;;;21.87;30.70;94538.69;6153684;28;104162;-54
2022/04/18 02:41:43;;;;;;;7.53;7.00;;;;;;;21.86;30.50;94537.91;6154398;28;103615;-54
2022/04/18 02:44:46;;;;;;;7.20;6.63;;;;;;;21.86;30.83;94532.59;6161051;28;104685;-54
2022/04/18 02:47:48;;;;;;;7.20;6.67;;;;;;;21.86;30.58;94535.25;6159174;28;103298;-55
2022/04/18 02:50:50;;;;;;;7.67;6.93;;;;;;;21.87;30.78;94533.38;6157065;28;102705;-55
2022/04/18 02:53:53;;;;;;;7.20;6.53;;;;;;;21.87;30.59;94536.81;6149599;28;104341;-55
2022/04/18 02:56:54;;;;;;;6.33;5.83;;;;;;;21.86;30.48;94524.59;6160489;28;103041;-54
2022/04/18 02:59:56;;;;;;;6.97;6.47;;;;;;;21.85;30.65;94530.25;6153386;28;104202;-55
2022/04/18 03:02:58;;;;;;;6.53;6.03;;;;;;;21.87;30.79;94536.03;6145223;28;103295;-54
2022/04/18 03:06:00;;;;;;;6.60;6.10;;;;;;;21.87;31.09;94534.16;6159354;28;103511;-54
2022/04/18 03:09:02;;;;;;;6.30;5.80;;;;;;;21.85;30.53;94528.38;6162600;28;103266;-54
2022/04/18 03:12:06;;;;;;;6.00;5.50;;;;;;;21.85;30.96;94530.25;6140737;28;103588;-53
2022/04/18 03:15:08;;;;;;;6.33;5.80;;;;;;;21.85;30.90;94531.03;6157086;28;103022;-54
2022/04/18 03:18:10;;;;;;;6.53;6.03;;;;;;;21.87;32.16;94534.16;6141000;28;103398;-54
2022/04/18 03:21:13;;;;;;;5.60;5.10;;;;;;;21.86;32.03;94529.16;6148768;28;103526;-52
2022/04/18 03:24:14;;;;;;;5.70;5.30;;;;;;;21.82;30.95;94526.31;6148612;28;103900;-51
2022/04/18 03:27:16;;;;;;;5.77;5.27;;;;;;;21.86;30.65;94529.94;6162986;28;103028;-50
2022/04/18 03:30:18;;;;;;;5.60;5.20;;;;;;;21.85;30.66;94528.38;6155961;28;103205;-50
2022/04/18 03:33:20;;;;;;;5.47;5.07;;;;;;;21.86;31.01;94521.94;6153234;28;103334;-50
2022/04/18 03:39:51;;;;;;;6.60;4.70;;;;;;;21.80;31.06;94525.81;6157915;28;103934;-51
2022/04/18 03:42:53;;;;;;;3.93;3.63;;;;;;;21.62;30.08;94524.28;6153972;28;104074;-51
2022/04/18 03:45:55;;;;;;;3.83;1.97;;;;;;;21.36;29.26;94521.66;6139921;28;102959;-54
2022/04/18 03:48:57;;;;;;;5.53;2.43;;;;;;;21.52;30.05;94520.84;6154489;28;103997;-54
2022/04/18 03:51:58;;;;;;;2.33;2.13;;;;;;;21.52;29.68;94530.72;6133923;28;103481;-54
2022/04/18 03:55:00;;;;;;;2.10;1.67;;;;;;;21.57;30.32;94527.13;6142314;28;104968;-54
2022/04/18 03:58:02;;;;;;;3.00;1.97;;;;;;;21.63;31.49;94534.63;6129301;28;104232;-55
2022/04/18 04:01:03;;;;;;;10.40;2.57;;;;;;;21.72;31.25;94535.41;6136456;28;103853;-54
2022/04/18 04:04:05;;;;;;;1.70;1.60;;;;;;;21.77;30.64;94537.09;6144493;28;103193;-55
2022/04/18 04:07:07;;;;;;;3.53;1.40;;;;;;;21.85;30.18;94538.25;6134233;28;104702;-55
2022/04/18 04:10:09;;;;;;;2.30;1.20;;;;;;;21.85;30.47;94538.25;6121230;28;103333;-54
2022/04/18 04:13:10;;;;;;;1.47;0.90;;;;;;;21.78;29.39;94538.66;6138843;28;104034;-55
2022/04/18 04:16:12;;;;;;;4.63;1.60;;;;;;;21.83;30.68;94543.06;6137539;28;104033;-54
2022/04/18 04:19:14;;;;;;;1.50;1.00;;;;;;;21.72;29.28;94531.97;6128817;28;103620;-59
2022/04/18 04:22:16;;;;;;;4.77;1.70;;;;;;;21.87;30.68;94533.38;6114712;28;103503;-54
2022/04/18 04:25:18;;;;;;;2.77;1.50;;;;;;;22.00;30.04;94538.50;6114571;28;102983;-54
2022/04/18 04:28:20;;;;;;;2.63;1.60;;;;;;;22.07;29.70;94541.47;6112550;28;103922;-54
2022/04/18 04:31:22;;;;;;;4.33;1.97;;;;;;;22.11;29.50;94536.28;6115578;28;103340;-54
2022/04/18 04:34:24;;;;;;;2.73;2.00;;;;;;;22.19;29.89;94548.03;6151624;28;104206;-54
2022/04/18 04:37:25;;;;;;;3.77;2.43;;;;;;;22.20;29.69;94546.94;6136544;28;102999;-54
2022/04/18 04:40:27;;;;;;;3.03;2.10;;;;;;;22.19;29.97;94548.81;6136836;28;104484;-54
2022/04/18 04:43:29;;;;;;;4.70;2.33;;;;;;;22.20;29.97;94542.38;6127231;28;103186;-54
2022/04/18 04:46:31;;;;;;;3.43;2.80;;;;;;;22.15;29.72;94545.19;6137522;28;103633;-50
2022/04/18 04:49:32;;;;;;;5.00;2.73;;;;;;;22.11;29.67;94549.59;6137656;28;104309;-51
2022/04/18 04:52:34;;;;;;;2.63;2.43;;;;;;;22.08;29.65;94548.38;6133776;28;104223;-51
2022/04/18 04:55:37;;;;;;;2.63;2.40;;;;;;;22.06;29.93;94549.78;6132895;28;103010;-50
2022/04/18 04:58:39;;;;;;;2.50;2.30;;;;;;;22.06;29.97;94549.78;6137441;28;104568;-51
2022/04/18 05:01:40;;;;;;;4.40;2.40;;;;;;;22.03;29.73;94550.44;6138268;28;103963;-51
2022/04/18 05:04:42;;;;;;;2.30;2.10;;;;;;;22.04;29.59;94547.44;6129203;28;104071;-50
2022/04/18 05:07:44;;;;;;;2.23;2.07;;;;;;;22.05;29.51;94553.56;6136944;28;102967;-51
2022/04/18 05:10:45;;;;;;;2.37;2.20;;;;;;;22.04;29.51;94552.78;6137661;28;104155;-51
2022/04/18 05:13:47;;;;;;;2.13;2.03;;;;;;;22.02;29.36;94549.66;6135440;28;103331;-50
2022/04/18 05:16:49;;;;;;;4.17;2.30;;;;;;;22.02;29.75;94546.97;6126973;28;103184;-50
2022/04/18 05:19:51;;;;;;;3.70;2.30;;;;;;;22.01;29.44;94553.41;6137118;28;104033;-51
2022/04/18 05:22:53;;;;;;;2.10;1.90;;;;;;;22.01;29.47;94555.25;6137982;28;103480;-51
2022/04/18 05:25:54;;;;;;;1.90;1.80;;;;;;;22.00;29.61;94551.81;6137193;28;103019;-51
2022/04/18 05:28:56;;;;;;;2.37;2.17;;;;;;;22.00;28.94;94554.47;6127285;28;104018;-54
2022/04/18 05:31:58;;;;;;;2.23;2.00;;;;;;;22.01;29.44;94553.41;6137309;28;103448;-54
2022/04/18 05:35:00;;;;;;;3.40;3.10;;;;;;;22.00;29.54;94559.81;6137405;28;104339;-54
2022/04/18 05:38:02;;;;;;;4.17;3.87;;;;;;;21.99;29.83;94554.81;6132921;28;103520;-54
2022/04/18 05:41:03;;;;;;;4.30;3.90;;;;;;;21.99;30.09;94555.59;6131302;28;103087;-54
2022/04/18 05:44:05;;;;;;;6.33;5.60;;;;;;;22.00;30.16;94559.81;6137134;28;103272;-54
2022/04/18 05:47:07;;;;;;;6.83;6.23;;;;;;;22.02;30.40;94562.97;6136507;28;102970;-54
2022/04/18 05:50:09;;;;;;;6.77;6.17;;;;;;;22.01;31.10;94563.25;6126519;28;102836;-54
2022/04/18 05:53:12;;;;;;;6.93;6.33;;;;;;;22.00;31.55;94562.47;6136728;28;103020;-54
2022/04/18 05:56:14;;;;;;;6.97;6.37;;;;;;;21.98;30.80;94569.22;6137293;28;103122;-54
2022/04/18 05:59:16;;;;;;;7.20;6.60;;;;;;;21.97;31.37;94570.31;6136363;28;103238;-54
2022/04/18 06:02:18;;;;;;;8.47;7.67;;;;;;;21.97;31.24;94568.44;6126070;28;103926;-54
2022/04/18 06:05:19;;;;;;;8.07;7.37;;;;;;;21.96;31.24;94571.44;6136563;28;103296;-54
2022/04/18 06:08:21;;;;;;;7.93;7.30;;;;;;;21.98;31.74;94569.22;6137363;28;104164;-52
2022/04/18 06:11:23;;;;;;;8.00;7.40;;;;;;;21.96;31.79;94572.22;6137684;28;103289;-52
2022/04/18 06:14:26;;;;;;;7.07;6.47;;;;;;;21.93;32.61;94567.50;6125670;28;103278;-52
2022/04/18 06:17:28;;;;;;;8.10;7.40;;;;;;;21.93;32.75;94567.50;6135762;28;103312;-52
2022/04/18 06:20:31;;;;;;;7.90;7.10;;;;;;;21.93;31.53;94572.84;6137576;28;102918;-52
2022/04/18 06:23:33;;;;;;;9.10;8.30;;;;;;;21.94;31.96;94571.75;6134614;28;103626;-55
2022/04/18 06:26:36;;;;;;;9.27;8.50;;;;;;;21.95;31.66;94575.19;6132332;28;103407;-54
2022/04/18 06:29:39;;;;;;;10.23;9.33;;;;;;;21.95;31.96;94575.97;6138157;28;103192;-55
2022/04/18 06:32:41;;;;;;;9.53;8.67;;;;;;;21.95;32.47;94569.84;6136797;28;102929;-54
2022/04/18 06:35:46;;;;;;;8.80;8.10;;;;;;;21.95;31.52;94567.19;6128378;28;103372;-54
2022/04/18 06:38:48;;;;;;;8.57;7.80;;;;;;;21.94;30.88;94569.06;6153229;28;103087;-54
2022/04/18 06:41:51;;;;;;;8.80;8.07;;;;;;;21.94;31.16;94584.28;6137489;28;103024;-54
2022/04/18 06:44:54;;;;;;;9.07;8.23;;;;;;;21.94;30.80;94584.28;6153065;28;102861;-54
2022/04/18 06:47:57;;;;;;;10.10;9.20;;;;;;;21.93;31.04;94580.06;6143868;28;103359;-53
2022/04/18 06:50:59;;;;;;;10.37;8.77;;;;;;;21.93;31.09;94582.72;6152691;28;103161;-52
2022/04/18 06:54:02;;;;;;;9.37;8.67;;;;;;;21.94;31.13;94589.59;6137674;28;102867;-52
2022/04/18 06:57:04;;;;;;;10.70;9.80;;;;;;;21.93;31.17;94591.50;6137224;28;103031;-52
2022/04/18 07:00:07;;;;;;;10.13;9.23;;;;;;;21.92;30.97;94584.59;6144945;28;103133;-54
2022/04/18 07:03:13;;;;;;;11.40;10.50;;;;;;;21.92;30.87;94589.94;6136209;28;102932;-54
2022/04/18 07:06:15;;;;;;;9.77;8.97;;;;;;;21.94;30.75;94586.94;6152375;28;103059;-54
2022/04/18 07:09:18;;;;;;;11.73;10.83;;;;;;;21.94;30.91;94590.38;6130650;28;102999;-52
2022/04/18 07:12:23;;;;;;;11.30;10.30;;;;;;;21.95;30.52;94589.28;6136030;28;102970;-52
2022/04/18 07:15:25;;;;;;;13.67;12.20;;;;;;;21.97;31.48;94589.75;6139877;28;103083;-51
2022/04/18 07:18:27;;;;;;;12.93;11.83;;;;;;;22.06;31.11;94587.09;6139138;28;104051;-53
2022/04/18 07:21:29;;;;;;;14.10;13.00;;;;;;;22.00;32.03;94583.78;6129351;28;103098;-53
2022/04/18 07:24:30;;;;;;;13.03;11.93;;;;;;;22.00;31.12;94599.00;6138349;28;103277;-50
2022/04/18 07:27:33;;;;;;;12.53;11.53;;;;;;;21.97;30.97;94579.09;6139728;28;103946;-50
2022/04/18 07:30:34;;;;;;;13.30;12.20;;;;;;;21.94;31.14;94590.38;6140075;28;103233;-49
2022/04/18 07:33:36;;;;;;;12.07;11.10;;;;;;;21.96;30.87;94587.41;6128698;28;104199;-52
2022/04/18 07:36:38;;;;;;;12.90;11.90;;;;;;;21.91;30.81;94583.03;6139916;28;103113;-50
2022/04/18 07:39:39;;;;;;;11.30;10.40;;;;;;;21.93;30.63;94588.81;6139563;28;104300;-50
2022/04/18 07:42:41;;;;;;;11.47;10.57;;;;;;;21.91;30.42;94587.56;6134777;28;104112;-50
2022/04/18 07:45:43;;;;;;;11.10;10.10;;;;;;;21.89;30.92;94590.56;6133645;28;103306;-50
2022/04/18 07:48:47;;;;;;;11.43;10.53;;;;;;;21.89;30.40;94603.88;6138521;28;103154;-49
2022/04/18 07:51:48;;;;;;;10.37;9.57;;;;;;;21.88;30.30;94597.00;6139438;28;103095;-50
2022/04/18 07:54:50;;;;;;;10.50;9.60;;;;;;;21.88;30.56;94602.31;6129311;28;104537;-49
2022/04/18 07:57:52;;;;;;;9.67;8.93;;;;;;;21.87;30.55;94606.06;6138654;28;103134;-49
2022/04/18 08:00:54;;;;;;;9.70;8.90;;;;;;;21.89;30.31;94603.09;6139374;28;103749;-50
2022/04/18 08:03:57;;;;;;;9.77;8.97;;;;;;;21.88;30.38;94610.31;6138993;28;104235;-50
2022/04/18 08:06:59;;;;;;;9.70;8.90;;;;;;;21.86;30.08;94599.19;6128569;28;103215;-49
2022/04/18 08:10:00;;;;;;;10.40;9.60;;;;;;;21.87;30.52;94602.63;6138346;28;104141;-50
2022/04/18 08:13:05;;;;;;;9.10;8.40;;;;;;;21.88;30.39;94604.97;6139692;28;103259;-50
2022/04/18 08:16:07;;;;;;;9.40;8.60;;;;;;;21.86;30.16;94604.50;6138752;28;102886;-50
2022/04/18 08:19:09;;;;;;;8.73;8.03;;;;;;;21.86;30.20;94609.84;6127630;28;103595;-50
2022/04/18 08:22:11;;;;;;;8.83;8.17;;;;;;;21.85;30.19;94602.16;6137189;28;103068;-50
2022/04/18 08:25:13;;;;;;;8.57;7.87;;;;;;;21.86;30.03;94604.50;6137420;28;103085;-50
2022/04/18 08:28:15;;;;;;;8.57;7.87;;;;;;;21.85;30.01;94602.94;6133116;28;103327;-50
2022/04/18 08:31:17;;;;;;;8.80;8.10;;;;;;;21.85;30.14;94608.28;6132873;28;103370;-50
2022/04/18 08:34:19;;;;;;;8.53;7.87;;;;;;;21.83;30.08;94602.47;6137954;28;103263;-49
2022/04/18 08:37:21;;;;;;;7.80;7.20;;;;;;;21.84;29.89;94604.03;6138648;28;104012;-50
2022/04/18 08:40:22;;;;;;;8.03;7.40;;;;;;;21.85;29.86;94608.28;6127370;28;102969;-50
2022/04/18 08:43:24;;;;;;;8.07;7.47;;;;;;;21.84;30.13;94600.56;6138047;28;103177;-49
2022/04/18 08:46:26;;;;;;;7.43;6.83;;;;;;;21.84;29.98;94608.56;6138206;28;103337;-50
2022/04/18 08:52:50;;;;;;;7.73;7.13;;;;;;;21.84;29.75;94603.25;6127693;28;103539;-50
2022/04/18 08:55:54;;;;;;;7.10;6.60;;;;;;;21.82;29.94;94603.56;6137022;28;103010;-50
2022/04/18 08:58:56;;;;;;;7.63;7.03;;;;;;;21.84;30.09;94601.34;6138249;28;103055;-52
2022/04/18 09:01:59;;;;;;;6.60;6.10;;;;;;;21.83;30.02;94604.34;6135078;28;103201;-51
2022/04/18 09:05:01;;;;;;;6.57;6.07;;;;;;;21.83;29.64;94599.00;6131289;28;103467;-50
2022/04/18 09:08:05;;;;;;;7.13;6.53;;;;;;;21.82;29.71;94598.22;6137823;28;103205;-50
2022/04/18 09:11:07;;;;;;;6.70;6.20;;;;;;;21.81;29.65;94594.75;6137111;28;104077;-50
2022/04/18 09:14:11;;;;;;;5.67;5.27;;;;;;;21.84;29.64;94597.91;6128097;28;104421;-50
2022/04/18 09:17:33;;;;;;;6.47;5.97;;;;;;;21.84;29.99;94595.25;6136693;28;104004;-51
2022/04/18 09:20:41;;;;;;;5.80;5.40;;;;;;;21.84;29.58;94598.69;6137032;28;104313;-50
2022/04/18 09:23:43;;;;;;;5.93;5.43;;;;;;;21.82;29.96;94590.25;6137284;28;106258;-50
2022/04/18 09:26:45;;;;;;;6.30;5.80;;;;;;;21.83;29.71;94591.03;6125955;28;104375;-51
2022/04/18 09:29:50;;;;;;;5.47;5.07;;;;;;;21.83;29.35;94586.47;6137371;28;104118;-50
2022/04/18 09:33:03;;;;;;;5.40;5.00;;;;;;;21.83;29.67;94589.13;6136558;28;103979;-51
2022/04/18 09:36:18;;;;;;;6.10;5.60;;;;;;;21.83;29.66;94583.81;6133720;28;103106;-53
2022/04/18 09:39:24;;;;;;;5.47;5.07;;;;;;;21.85;29.45;94592.28;6131367;28;103261;-52
2022/04/18 09:42:28;;;;;;;5.33;4.93;;;;;;;21.84;29.76;94588.03;6137099;28;103351;-50
2022/04/18 09:45:30;;;;;;;5.30;4.97;;;;;;;21.85;29.71;94586.19;6136975;28;103328;-50
2022/04/18 09:48:33;;;;;;;4.80;4.40;;;;;;;21.83;29.36;94585.69;6126012;28;103865;-51
2022/04/18 09:51:37;;;;;;;4.80;4.40;;;;;;;21.84;29.62;94585.38;6135869;28;103127;-50
2022/04/18 09:54:53;;;;;;;4.90;4.50;;;;;;;21.84;29.58;94579.25;6136371;28;104056;-50
2022/04/18 09:58:01;;;;;;;5.13;4.73;;;;;;;21.83;29.52;94575.81;6136527;28;103214;-50
2022/04/18 10:01:23;;;;;;;4.63;4.23;;;;;;;21.84;29.49;94573.94;6126380;28;104980;-50
2022/04/18 10:04:26;;;;;;;4.87;4.57;;;;;;;21.84;29.61;94582.72;6136199;28;102956;-51
2022/04/18 10:07:29;;;;;;;4.77;4.37;;;;;;;21.84;29.24;94573.94;6136769;28;104008;-50
2022/04/18 10:10:36;;;;;;;4.60;4.20;;;;;;;21.85;29.35;94572.88;6131747;28;104579;-51
2022/04/18 10:13:39;;;;;;;4.70;4.30;;;;;;;21.83;29.22;94567.81;6130749;28;103169;-50
2022/04/18 10:16:41;;;;;;;4.50;4.10;;;;;;;21.84;29.27;94568.59;6136140;28;103230;-51
2022/04/18 10:20:05;;;;;;;4.10;3.80;;;;;;;21.85;29.43;94564.88;6136618;28;104026;-50
2022/04/18 10:23:27;;;;;;;4.40;4.10;;;;;;;21.84;29.54;94566.72;6124490;28;102991;-50
2022/04/18 10:26:51;;;;;;;4.27;3.97;;;;;;;21.85;29.42;94560.34;6136336;28;103182;-50
2022/04/18 10:29:54;;;;;;;4.17;3.87;;;;;;;21.86;29.10;94555.78;6135823;28;103383;-50
2022/04/18 10:32:57;;;;;;;4.80;4.40;;;;;;;21.85;29.29;94554.22;6130556;28;103169;-52
2022/04/18 10:36:04;;;;;;;4.10;3.80;;;;;;;21.85;29.18;94557.66;6129719;28;102989;-50
2022/04/18 10:39:07;;;;;;;3.73;3.43;;;;;;;21.85;29.44;94554.22;6135932;28;104177;-50
2022/04/18 10:42:23;;;;;;;4.87;4.47;;;;;;;21.96;29.81;94556.22;6134407;28;102756;-52
2022/04/18 10:45:26;;;;;;;7.27;6.67;;;;;;;21.98;29.74;94553.25;6125392;28;103241;-53
2022/04/18 10:48:34;;;;;;;11.90;10.70;;;;;;;22.04;30.41;94552.00;6138449;28;102997;-52
2022/04/18 10:51:38;;;;;;;13.37;12.20;;;;;;;21.96;30.41;94550.88;6140339;28;103505;-54
2022/04/18 10:54:59;;;;;;;14.40;13.20;;;;;;;21.95;30.59;94551.22;6138654;28;103300;-52
2022/04/18 10:58:15;;;;;;;16.50;15.20;;;;;;;21.94;30.29;94542.44;6129454;28;104162;-53
2022/04/18 11:01:36;;;;;;;18.50;17.03;;;;;;;21.92;30.72;94544.63;6139829;28;103020;-54
2022/04/18 11:04:38;;;;;;;19.37;17.77;;;;;;;21.91;30.67;94540.41;6139928;28;104053;-52
2022/04/18 11:07:42;;;;;;;20.47;18.33;;;;;;;21.89;30.20;94534.63;6130052;28;103157;-54
2022/04/18 11:10:44;;;;;;;20.77;19.07;;;;;;;21.89;30.65;94531.19;6137879;28;103675;-53
2022/04/18 11:13:49;;;;;;;20.03;18.43;;;;;;;21.90;30.55;94535.41;6139453;28;104114;-53
2022/04/18 11:16:54;;;;;;;21.37;19.57;;;;;;;21.89;30.64;94529.28;6138695;28;104029;-53
2022/04/18 11:19:57;;;;;;;24.10;22.10;;;;;;;21.88;30.36;94516.28;6129754;28;104809;-56
2022/04/18 11:23:18;;;;;;;24.70;22.60;;;;;;;21.90;30.49;94524.75;6139118;28;104459;-54
2022/04/18 11:26:20;;;;;;;25.00;22.90;;;;;;;21.88;30.51;94527.72;6138919;28;102964;-53
2022/04/18 11:29:22;;;;;;;26.40;24.20;;;;;;;21.90;30.41;94530.06;6139994;28;104272;-53
2022/04/18 11:32:33;;;;;;;26.50;24.30;;;;;;;21.88;30.39;94524.28;6128736;28;103078;-53
2022/04/18 11:35:35;;;;;;;27.17;24.97;;;;;;;21.90;30.23;94524.75;6153946;28;103232;-52
2022/04/18 11:38:36;;;;;;;28.40;26.00;;;;;;;21.89;30.37;94528.50;6138886;28;103011;-53
2022/04/18 11:41:38;;;;;;;29.33;26.93;;;;;;;21.86;30.16;94519.28;6132093;28;104122;-54
2022/04/18 11:44:41;;;;;;;29.33;26.93;;;;;;;21.88;30.15;94525.06;6136419;28;103047;-53
2022/04/18 11:47:47;;;;;;;29.97;27.53;;;;;;;21.88;30.48;94522.41;6139409;28;103085;-53
2022/04/18 11:50:49;;;;;;;28.70;26.30;;;;;;;21.86;30.27;94513.94;6139568;28;103580;-53
2022/04/18 11:54:00;;;;;;;27.93;25.73;;;;;;;21.89;29.99;94523.19;6127470;28;103992;-52
2022/04/18 11:57:03;;;;;;;30.47;27.90;;;;;;;21.87;30.54;94514.72;6138786;28;102872;-52
2022/04/18 12:00:10;;;;;;;29.13;26.73;;;;;;;21.88;30.30;94519.75;6138350;28;103002;-53
2022/04/18 12:06:45;;;;;;;30.40;27.90;;;;;;;21.86;30.27;94513.94;6128833;28;104239;-52
2022/04/18 12:09:47;;;;;;;28.20;25.80;;;;;;;21.97;30.94;94512.50;6138688;28;102978;-53
2022/04/18 12:12:49;;;;;;;29.03;26.70;;;;;;;21.98;30.85;94505.28;6139044;28;104118;-53
2022/04/18 12:15:50;;;;;;;27.23;24.83;;;;;;;21.97;30.98;94504.50;6128005;28;103543;-50
2022/04/18 12:18:54;;;;;;;26.20;24.00;;;;;;;21.92;30.42;94504.69;6138221;28;102976;-50
2022/04/18 12:21:57;;;;;;;26.60;24.40;;;;;;;21.87;30.40;94496.88;6138428;28;103231;-51
2022/04/18 12:24:59;;;;;;;26.13;23.93;;;;;;;21.86;30.65;94500.63;6138434;28;104096;-50
2022/04/18 12:28:05;;;;;;;26.33;24.17;;;;;;;21.85;30.27;94498.28;6127435;28;103060;-50
2022/04/18 12:31:10;;;;;;;25.10;23.00;;;;;;;21.84;30.25;94488.72;6137792;28;103188;-50
2022/04/18 12:34:21;;;;;;;24.03;22.13;;;;;;;21.84;30.23;94489.50;6138502;28;104392;-50
2022/04/18 12:37:26;;;;;;;24.77;22.77;;;;;;;21.80;30.41;94483.22;6138039;28;103284;-50
2022/04/18 12:40:34;;;;;;;22.77;20.87;;;;;;;21.83;30.29;94484.47;6127987;28;103043;-51
2022/04/18 12:43:37;;;;;;;22.47;20.67;;;;;;;21.83;30.10;94487.13;6138163;28;104058;-49
2022/04/18 12:46:39;;;;;;;22.37;20.37;;;;;;;21.82;30.29;94473.03;6137696;28;104078;-50
2022/04/18 12:50:03;;;;;;;22.27;20.37;;;;;;;21.84;30.27;94478.06;6133284;28;103997;-50
2022/04/18 12:53:04;;;;;;;22.17;20.37;;;;;;;21.83;29.85;94473.81;6137131;28;102980;-50
2022/04/18 12:56:06;;;;;;;21.20;19.40;;;;;;;21.81;30.06;94474.91;6137898;28;103556;-49
2022/04/18 12:59:09;;;;;;;20.23;18.43;;;;;;;21.83;30.16;94481.81;6136769;28;104136;-49
2022/04/18 13:02:11;;;;;;;20.07;18.37;;;;;;;21.83;29.84;94481.81;6127607;28;103150;-51
2022/04/18 13:05:13;;;;;;;20.20;18.50;;;;;;;21.81;29.73;94480.22;6137715;28;103295;-49
2022/04/18 13:08:16;;;;;;;18.50;17.00;;;;;;;21.84;29.70;94483.38;6137202;28;103529;-50
2022/04/18 13:11:18;;;;;;;18.33;16.93;;;;;;;21.82;29.79;94475.72;6136997;28;102990;-49
2022/04/18 13:14:20;;;;;;;18.27;16.77;;;;;;;21.82;29.92;94478.38;6126580;28;103951;-51
2022/04/18 13:17:22;;;;;;;18.30;16.80;;;;;;;21.83;29.62;94476.50;6137588;28;103924;-49
2022/04/18 13:20:24;;;;;;;18.13;16.63;;;;;;;21.83;29.57;94479.16;6137809;28;103046;-49
2022/04/18 13:23:26;;;;;;;16.87;15.47;;;;;;;21.81;29.56;94476.78;6131938;28;103199;-50
2022/04/18 13:26:29;;;;;;;17.67;16.20;;;;;;;21.80;29.50;94475.22;6132191;28;103092;-50
2022/04/18 13:29:32;;;;;;;16.97;15.53;;;;;;;21.81;29.77;94482.09;6136254;28;103479;-51
2022/04/18 13:32:35;;;;;;;16.77;15.43;;;;;;;21.79;29.54;94484.31;6138055;28;104164;-50
2022/04/18 13:39:02;;;;;;;16.87;15.50;;;;;;;21.80;29.74;94476.00;6137610;28;103046;-50
2022/04/18 13:42:04;;;;;;;15.50;14.27;;;;;;;21.80;29.58;94477.88;6137284;28;103822;-50
2022/04/18 13:45:11;;;;;;;15.47;14.27;;;;;;;21.80;29.37;94477.88;6136902;28;103155;-50
2022/04/18 13:48:15;;;;;;;15.20;14.00;;;;;;;21.80;29.31;94478.66;6126277;28;103202;-50
2022/04/18 13:51:18;;;;;;;15.03;13.83;;;;;;;21.79;29.40;94482.44;6136629;28;103045;-51
2022/04/18 13:54:20;;;;;;;14.93;13.67;;;;;;;21.78;29.68;94475.53;6136885;28;103478;-50
2022/04/18 13:57:21;;;;;;;15.33;14.10;;;;;;;21.79;29.45;94474.44;6132169;28;103055;-51
2022/04/18 14:00:23;;;;;;;14.20;13.10;;;;;;;21.79;29.25;94478.97;6129925;28;103085;-50
2022/04/18 14:03:26;;;;;;;13.97;12.80;;;;;;;21.79;29.22;94471.00;6136798;28;103282;-50
2022/04/18 14:06:29;;;;;;;14.33;13.20;;;;;;;21.79;29.58;94481.63;6136062;28;103108;-50
2022/04/18 14:09:31;;;;;;;13.70;12.50;;;;;;;21.78;29.59;94474.75;6126656;28;104493;-50
2022/04/18 14:12:33;;;;;;;12.80;11.80;;;;;;;21.78;29.08;94477.41;6137091;28;104563;-51
2022/04/18 14:22:16;;;;;;;13.07;12.07;;;;;;;21.76;29.29;94468.97;6125925;28;104270;-51
2022/04/18 14:25:20;;;;;;;12.57;11.57;;;;;;;21.76;29.63;94475.06;6140931;28;103272;-51
2022/04/18 14:28:22;;;;;;;11.90;10.90;;;;;;;21.75;29.12;94478.84;6140069;28;103030;-51
2022/04/18 14:31:24;;;;;;;12.60;11.60;;;;;;;21.76;29.62;94471.63;6135160;28;102983;-51
2022/04/18 14:34:26;;;;;;;11.53;10.63;;;;;;;21.75;29.61;94472.72;6135574;28;104261;-50
2022/04/18 14:37:28;;;;;;;12.13;11.13;;;;;;;21.73;29.03;94469.59;6139721;28;102997;-50